sensor_id;sensor_type;location;lat;lon;timestamp;P1;durP1;ratioP1;P2;durP2;ratioP2
14116;SDS011;7137;51.436;6.544;2022-11-24T00:01:59;13.17;;;3.27;;
14116;SDS011;7137;51.436;6.544;2022-11-24T00:05:02;13.73;;;3.03;;
14116;SDS011;7137;51.436;6.544;2022-11-24T00:08:04;14.83;;;3.13;;
14116;SDS011;7137;51.436;6.544;2022-11-24T00:11:06;11.33;;;3.00;;
14116;SDS011;7137;51.436;6.544;2022-11-24T00:14:09;16.73;;;3.50;;
14116;SDS011;7137;51.436;6.544;2022-11-24T00:17:11;15.23;;;3.20;;
14116;SDS011;7137;51.436;6.544;2022-11-24T00:20:15;14.10;;;2.67;;
14116;SDS011;7137;51.436;6.544;2022-11-24T00:23:17;13.73;;;2.90;;
14116;SDS011;7137;51.436;6.544;2022-11-24T00:26:19;12.87;;;3.03;;
14116;SDS011;7137;51.436;6.544;2022-11-24T00:29:21;16.70;;;3.67;;
14116;SDS011;7137;51.436;6.544;2022-11-24T00:32:23;14.03;;;3.13;;
14116;SDS011;7137;51.436;6.544;2022-11-24T00:35:26;12.33;;;3.10;;
14116;SDS011;7137;51.436;6.544;2022-11-24T00:38:27;15.13;;;3.00;;
14116;SDS011;7137;51.436;6.544;2022-11-24T00:41:29;11.30;;;2.73;;
14116;SDS011;7137;51.436;6.544;2022-11-24T00:44:31;12.13;;;2.80;;
14116;SDS011;7137;51.436;6.544;2022-11-24T00:47:33;14.87;;;3.07;;
14116;SDS011;7137;51.436;6.544;2022-11-24T00:50:35;16.57;;;2.87;;
14116;SDS011;7137;51.436;6.544;2022-11-24T00:53:37;14.27;;;2.83;;
14116;SDS011;7137;51.436;6.544;2022-11-24T00:56:40;14.40;;;2.90;;
14116;SDS011;7137;51.436;6.544;2022-11-24T00:59:42;12.63;;;2.80;;
14116;SDS011;7137;51.436;6.544;2022-11-24T01:02:44;15.50;;;2.93;;
14116;SDS011;7137;51.436;6.544;2022-11-24T01:05:47;11.20;;;2.30;;
14116;SDS011;7137;51.436;6.544;2022-11-24T01:08:49;10.93;;;2.30;;
14116;SDS011;7137;51.436;6.544;2022-11-24T01:11:51;9.63;;;2.30;;
14116;SDS011;7137;51.436;6.544;2022-11-24T01:15:03;12.33;;;3.00;;
14116;SDS011;7137;51.436;6.544;2022-11-24T01:18:05;9.37;;;2.60;;
14116;SDS011;7137;51.436;6.544;2022-11-24T01:21:08;13.17;;;3.07;;
14116;SDS011;7137;51.436;6.544;2022-11-24T01:24:09;12.40;;;2.90;;
14116;SDS011;7137;51.436;6.544;2022-11-24T01:27:11;12.60;;;2.63;;
14116;SDS011;7137;51.436;6.544;2022-11-24T01:30:13;12.97;;;2.77;;
14116;SDS011;7137;51.436;6.544;2022-11-24T01:33:14;11.20;;;2.90;;
14116;SDS011;7137;51.436;6.544;2022-11-24T01:36:17;11.13;;;2.80;;
14116;SDS011;7137;51.436;6.544;2022-11-24T01:39:19;16.43;;;3.10;;
14116;SDS011;7137;51.436;6.544;2022-11-24T01:42:20;10.07;;;2.70;;
14116;SDS011;7137;51.436;6.544;2022-11-24T01:45:33;15.23;;;3.30;;
14116;SDS011;7137;51.436;6.544;2022-11-24T01:48:41;11.60;;;2.37;;
14116;SDS011;7137;51.436;6.544;2022-11-24T01:51:48;13.47;;;2.63;;
14116;SDS011;7137;51.436;6.544;2022-11-24T01:54:52;11.90;;;2.93;;
14116;SDS011;7137;51.436;6.544;2022-11-24T01:57:57;12.10;;;2.47;;
14116;SDS011;7137;51.436;6.544;2022-11-24T02:01:02;10.67;;;3.20;;
14116;SDS011;7137;51.436;6.544;2022-11-24T02:04:05;10.33;;;2.30;;
14116;SDS011;7137;51.436;6.544;2022-11-24T02:07:12;12.80;;;2.60;;
14116;SDS011;7137;51.436;6.544;2022-11-24T02:10:15;12.07;;;2.63;;
14116;SDS011;7137;51.436;6.544;2022-11-24T02:13:17;11.20;;;2.83;;
14116;SDS011;7137;51.436;6.544;2022-11-24T02:16:19;12.13;;;2.90;;
14116;SDS011;7137;51.436;6.544;2022-11-24T02:19:24;9.43;;;2.43;;
14116;SDS011;7137;51.436;6.544;2022-11-24T02:22:34;13.73;;;2.90;;
14116;SDS011;7137;51.436;6.544;2022-11-24T02:25:43;12.33;;;3.20;;
14116;SDS011;7137;51.436;6.544;2022-11-24T02:28:54;10.00;;;2.93;;
14116;SDS011;7137;51.436;6.544;2022-11-24T02:31:57;12.77;;;2.47;;
14116;SDS011;7137;51.436;6.544;2022-11-24T02:35:02;14.00;;;2.40;;
14116;SDS011;7137;51.436;6.544;2022-11-24T02:38:07;13.50;;;3.10;;
14116;SDS011;7137;51.436;6.544;2022-11-24T02:41:12;16.93;;;2.97;;
14116;SDS011;7137;51.436;6.544;2022-11-24T02:44:20;13.90;;;2.83;;
14116;SDS011;7137;51.436;6.544;2022-11-24T02:47:26;14.00;;;3.20;;
14116;SDS011;7137;51.436;6.544;2022-11-24T02:50:28;16.10;;;3.17;;
14116;SDS011;7137;51.436;6.544;2022-11-24T02:53:30;11.83;;;2.83;;
14116;SDS011;7137;51.436;6.544;2022-11-24T02:56:31;15.00;;;2.80;;
14116;SDS011;7137;51.436;6.544;2022-11-24T02:59:34;13.63;;;2.77;;
14116;SDS011;7137;51.436;6.544;2022-11-24T03:02:36;14.17;;;2.90;;
14116;SDS011;7137;51.436;6.544;2022-11-24T03:05:37;12.73;;;2.97;;
14116;SDS011;7137;51.436;6.544;2022-11-24T03:08:39;14.07;;;3.43;;
14116;SDS011;7137;51.436;6.544;2022-11-24T03:11:40;9.90;;;2.57;;
14116;SDS011;7137;51.436;6.544;2022-11-24T03:14:43;11.47;;;2.90;;
14116;SDS011;7137;51.436;6.544;2022-11-24T03:17:45;13.30;;;2.87;;
14116;SDS011;7137;51.436;6.544;2022-11-24T03:20:46;15.33;;;3.30;;
14116;SDS011;7137;51.436;6.544;2022-11-24T03:23:48;12.13;;;2.77;;
14116;SDS011;7137;51.436;6.544;2022-11-24T03:26:50;11.87;;;3.10;;
14116;SDS011;7137;51.436;6.544;2022-11-24T03:29:53;15.00;;;3.13;;
14116;SDS011;7137;51.436;6.544;2022-11-24T03:32:54;11.97;;;3.07;;
14116;SDS011;7137;51.436;6.544;2022-11-24T03:35:56;14.77;;;3.03;;
14116;SDS011;7137;51.436;6.544;2022-11-24T03:38:57;14.83;;;2.83;;
14116;SDS011;7137;51.436;6.544;2022-11-24T03:41:59;13.83;;;3.67;;
14116;SDS011;7137;51.436;6.544;2022-11-24T03:45:02;15.67;;;3.57;;
14116;SDS011;7137;51.436;6.544;2022-11-24T03:48:04;12.73;;;2.90;;
14116;SDS011;7137;51.436;6.544;2022-11-24T03:51:06;14.77;;;2.60;;
14116;SDS011;7137;51.436;6.544;2022-11-24T03:54:09;12.67;;;3.20;;
14116;SDS011;7137;51.436;6.544;2022-11-24T03:57:10;11.90;;;3.13;;
14116;SDS011;7137;51.436;6.544;2022-11-24T04:00:15;12.23;;;2.90;;
14116;SDS011;7137;51.436;6.544;2022-11-24T04:03:17;10.60;;;3.00;;
14116;SDS011;7137;51.436;6.544;2022-11-24T04:06:19;14.33;;;3.50;;
14116;SDS011;7137;51.436;6.544;2022-11-24T04:09:21;16.13;;;3.27;;
14116;SDS011;7137;51.436;6.544;2022-11-24T04:12:23;13.40;;;2.97;;
14116;SDS011;7137;51.436;6.544;2022-11-24T04:15:43;13.97;;;3.30;;
14116;SDS011;7137;51.436;6.544;2022-11-24T04:18:45;15.33;;;3.80;;
14116;SDS011;7137;51.436;6.544;2022-11-24T04:21:46;13.30;;;3.60;;
14116;SDS011;7137;51.436;6.544;2022-11-24T04:24:48;16.00;;;3.47;;
14116;SDS011;7137;51.436;6.544;2022-11-24T04:27:50;16.27;;;3.40;;
14116;SDS011;7137;51.436;6.544;2022-11-24T04:30:53;14.17;;;3.67;;
14116;SDS011;7137;51.436;6.544;2022-11-24T04:33:55;11.80;;;2.73;;
14116;SDS011;7137;51.436;6.544;2022-11-24T04:36:56;15.20;;;3.10;;
14116;SDS011;7137;51.436;6.544;2022-11-24T04:39:58;12.80;;;3.53;;
14116;SDS011;7137;51.436;6.544;2022-11-24T04:42:59;14.43;;;3.27;;
14116;SDS011;7137;51.436;6.544;2022-11-24T04:46:02;15.67;;;3.70;;
14116;SDS011;7137;51.436;6.544;2022-11-24T04:49:03;16.73;;;3.47;;
14116;SDS011;7137;51.436;6.544;2022-11-24T04:52:05;17.57;;;3.40;;
14116;SDS011;7137;51.436;6.544;2022-11-24T04:55:07;12.53;;;3.27;;
14116;SDS011;7137;51.436;6.544;2022-11-24T04:58:09;17.13;;;3.40;;
14116;SDS011;7137;51.436;6.544;2022-11-24T05:01:12;13.70;;;2.97;;
14116;SDS011;7137;51.436;6.544;2022-11-24T05:04:14;17.23;;;3.60;;
14116;SDS011;7137;51.436;6.544;2022-11-24T05:07:16;15.33;;;3.47;;
14116;SDS011;7137;51.436;6.544;2022-11-24T05:10:18;21.17;;;3.43;;
14116;SDS011;7137;51.436;6.544;2022-11-24T05:13:38;16.70;;;3.83;;
14116;SDS011;7137;51.436;6.544;2022-11-24T05:16:40;14.73;;;3.53;;
14116;SDS011;7137;51.436;6.544;2022-11-24T05:19:42;11.67;;;3.20;;
14116;SDS011;7137;51.436;6.544;2022-11-24T05:22:43;15.00;;;3.80;;
14116;SDS011;7137;51.436;6.544;2022-11-24T05:25:45;14.07;;;3.27;;
14116;SDS011;7137;51.436;6.544;2022-11-24T05:28:47;16.37;;;3.37;;
14116;SDS011;7137;51.436;6.544;2022-11-24T05:31:49;18.37;;;3.80;;
14116;SDS011;7137;51.436;6.544;2022-11-24T05:34:51;19.27;;;3.63;;
14116;SDS011;7137;51.436;6.544;2022-11-24T05:37:53;17.57;;;3.50;;
14116;SDS011;7137;51.436;6.544;2022-11-24T05:40:58;15.87;;;3.27;;
14116;SDS011;7137;51.436;6.544;2022-11-24T05:44:00;18.43;;;3.77;;
14116;SDS011;7137;51.436;6.544;2022-11-24T05:47:03;17.50;;;3.57;;
14116;SDS011;7137;51.436;6.544;2022-11-24T05:50:05;18.73;;;3.57;;
14116;SDS011;7137;51.436;6.544;2022-11-24T05:53:08;14.93;;;3.93;;
14116;SDS011;7137;51.436;6.544;2022-11-24T05:56:11;17.97;;;3.50;;
14116;SDS011;7137;51.436;6.544;2022-11-24T05:59:13;14.23;;;3.20;;
14116;SDS011;7137;51.436;6.544;2022-11-24T06:02:16;13.93;;;3.57;;
14116;SDS011;7137;51.436;6.544;2022-11-24T06:05:18;15.90;;;3.93;;
14116;SDS011;7137;51.436;6.544;2022-11-24T06:08:19;20.40;;;3.77;;
14116;SDS011;7137;51.436;6.544;2022-11-24T06:11:21;17.80;;;3.70;;
14116;SDS011;7137;51.436;6.544;2022-11-24T06:14:22;14.03;;;3.33;;
14116;SDS011;7137;51.436;6.544;2022-11-24T06:17:25;14.77;;;3.67;;
14116;SDS011;7137;51.436;6.544;2022-11-24T06:20:27;16.57;;;3.13;;
14116;SDS011;7137;51.436;6.544;2022-11-24T06:23:28;18.17;;;3.60;;
14116;SDS011;7137;51.436;6.544;2022-11-24T06:26:30;15.63;;;3.67;;
14116;SDS011;7137;51.436;6.544;2022-11-24T06:29:31;16.23;;;3.30;;
14116;SDS011;7137;51.436;6.544;2022-11-24T06:32:34;17.57;;;3.57;;
14116;SDS011;7137;51.436;6.544;2022-11-24T06:35:36;15.30;;;3.60;;
14116;SDS011;7137;51.436;6.544;2022-11-24T06:38:37;11.93;;;3.07;;
14116;SDS011;7137;51.436;6.544;2022-11-24T06:41:38;11.57;;;2.77;;
14116;SDS011;7137;51.436;6.544;2022-11-24T06:44:40;13.07;;;2.37;;
14116;SDS011;7137;51.436;6.544;2022-11-24T06:47:43;18.57;;;3.33;;
14116;SDS011;7137;51.436;6.544;2022-11-24T06:50:44;14.17;;;3.03;;
14116;SDS011;7137;51.436;6.544;2022-11-24T06:53:46;12.90;;;3.00;;
14116;SDS011;7137;51.436;6.544;2022-11-24T06:56:47;15.00;;;3.17;;
14116;SDS011;7137;51.436;6.544;2022-11-24T06:59:49;10.30;;;2.73;;
14116;SDS011;7137;51.436;6.544;2022-11-24T07:02:52;12.13;;;2.37;;
14116;SDS011;7137;51.436;6.544;2022-11-24T07:05:56;12.80;;;2.67;;
14116;SDS011;7137;51.436;6.544;2022-11-24T07:08:58;10.70;;;2.23;;
14116;SDS011;7137;51.436;6.544;2022-11-24T07:12:00;12.00;;;2.70;;
14116;SDS011;7137;51.436;6.544;2022-11-24T07:15:02;8.90;;;2.10;;
14116;SDS011;7137;51.436;6.544;2022-11-24T07:18:06;12.03;;;2.83;;
14116;SDS011;7137;51.436;6.544;2022-11-24T07:21:07;10.63;;;2.00;;
14116;SDS011;7137;51.436;6.544;2022-11-24T07:24:09;7.20;;;1.80;;
14116;SDS011;7137;51.436;6.544;2022-11-24T07:27:11;8.33;;;1.73;;
14116;SDS011;7137;51.436;6.544;2022-11-24T07:30:12;7.43;;;1.33;;
14116;SDS011;7137;51.436;6.544;2022-11-24T07:33:16;8.40;;;1.80;;
14116;SDS011;7137;51.436;6.544;2022-11-24T07:36:20;11.10;;;1.83;;
14116;SDS011;7137;51.436;6.544;2022-11-24T07:39:22;6.80;;;1.60;;
14116;SDS011;7137;51.436;6.544;2022-11-24T07:42:25;5.93;;;1.40;;
14116;SDS011;7137;51.436;6.544;2022-11-24T07:45:27;7.83;;;1.73;;
14116;SDS011;7137;51.436;6.544;2022-11-24T07:48:31;5.67;;;1.50;;
14116;SDS011;7137;51.436;6.544;2022-11-24T07:51:33;6.47;;;1.43;;
14116;SDS011;7137;51.436;6.544;2022-11-24T07:54:35;5.03;;;1.00;;
14116;SDS011;7137;51.436;6.544;2022-11-24T07:57:37;6.47;;;1.30;;
14116;SDS011;7137;51.436;6.544;2022-11-24T08:00:40;7.57;;;1.60;;
14116;SDS011;7137;51.436;6.544;2022-11-24T08:03:43;5.07;;;1.53;;
14116;SDS011;7137;51.436;6.544;2022-11-24T08:06:46;6.27;;;1.97;;
14116;SDS011;7137;51.436;6.544;2022-11-24T08:09:48;6.13;;;1.70;;
14116;SDS011;7137;51.436;6.544;2022-11-24T08:12:51;6.30;;;1.57;;
14116;SDS011;7137;51.436;6.544;2022-11-24T08:15:52;7.73;;;1.80;;
14116;SDS011;7137;51.436;6.544;2022-11-24T08:18:55;6.00;;;1.77;;
14116;SDS011;7137;51.436;6.544;2022-11-24T08:21:57;5.80;;;1.43;;
14116;SDS011;7137;51.436;6.544;2022-11-24T08:24:58;4.97;;;1.40;;
14116;SDS011;7137;51.436;6.544;2022-11-24T08:28:00;6.73;;;1.57;;
14116;SDS011;7137;51.436;6.544;2022-11-24T08:31:02;6.37;;;1.73;;
14116;SDS011;7137;51.436;6.544;2022-11-24T08:34:08;4.50;;;1.40;;
14116;SDS011;7137;51.436;6.544;2022-11-24T08:37:09;6.90;;;1.70;;
14116;SDS011;7137;51.436;6.544;2022-11-24T08:40:12;6.70;;;1.70;;
14116;SDS011;7137;51.436;6.544;2022-11-24T08:43:14;5.33;;;1.60;;
14116;SDS011;7137;51.436;6.544;2022-11-24T08:46:16;7.43;;;1.70;;
14116;SDS011;7137;51.436;6.544;2022-11-24T08:49:21;6.77;;;1.70;;
14116;SDS011;7137;51.436;6.544;2022-11-24T08:52:22;7.17;;;1.60;;
14116;SDS011;7137;51.436;6.544;2022-11-24T08:55:24;5.73;;;1.80;;
14116;SDS011;7137;51.436;6.544;2022-11-24T08:58:26;6.73;;;1.77;;
14116;SDS011;7137;51.436;6.544;2022-11-24T09:01:28;7.37;;;2.07;;
14116;SDS011;7137;51.436;6.544;2022-11-24T09:04:31;6.97;;;1.90;;
14116;SDS011;7137;51.436;6.544;2022-11-24T09:07:33;8.07;;;1.73;;
14116;SDS011;7137;51.436;6.544;2022-11-24T09:10:35;9.00;;;2.03;;
14116;SDS011;7137;51.436;6.544;2022-11-24T09:13:37;6.27;;;1.70;;
14116;SDS011;7137;51.436;6.544;2022-11-24T09:16:39;7.13;;;1.60;;
14116;SDS011;7137;51.436;6.544;2022-11-24T09:19:43;6.50;;;1.87;;
14116;SDS011;7137;51.436;6.544;2022-11-24T09:22:44;10.70;;;2.07;;
14116;SDS011;7137;51.436;6.544;2022-11-24T09:25:46;7.43;;;1.83;;
14116;SDS011;7137;51.436;6.544;2022-11-24T09:28:48;9.33;;;2.07;;
14116;SDS011;7137;51.436;6.544;2022-11-24T09:31:53;7.87;;;1.80;;
14116;SDS011;7137;51.436;6.544;2022-11-24T09:34:56;10.20;;;2.27;;
14116;SDS011;7137;51.436;6.544;2022-11-24T09:37:57;9.03;;;2.53;;
14116;SDS011;7137;51.436;6.544;2022-11-24T09:41:04;8.87;;;2.20;;
14116;SDS011;7137;51.436;6.544;2022-11-24T09:48:14;9.03;;;2.20;;
14116;SDS011;7137;51.436;6.544;2022-11-24T09:51:26;8.17;;;2.50;;
14116;SDS011;7137;51.436;6.544;2022-11-24T09:54:31;7.00;;;1.90;;
14116;SDS011;7137;51.436;6.544;2022-11-24T09:57:36;7.93;;;2.20;;
14116;SDS011;7137;51.436;6.544;2022-11-24T10:00:42;9.73;;;2.20;;
14116;SDS011;7137;51.436;6.544;2022-11-24T10:03:46;9.13;;;1.87;;
14116;SDS011;7137;51.436;6.544;2022-11-24T10:06:53;13.47;;;2.50;;
14116;SDS011;7137;51.436;6.544;2022-11-24T10:10:02;6.63;;;2.03;;
14116;SDS011;7137;51.436;6.544;2022-11-24T10:13:18;9.37;;;2.00;;
14116;SDS011;7137;51.436;6.544;2022-11-24T10:16:47;8.43;;;1.90;;
14116;SDS011;7137;51.436;6.544;2022-11-24T10:20:00;7.00;;;1.80;;
14116;SDS011;7137;51.436;6.544;2022-11-24T10:23:10;8.93;;;2.00;;
14116;SDS011;7137;51.436;6.544;2022-11-24T10:26:30;8.87;;;2.07;;
14116;SDS011;7137;51.436;6.544;2022-11-24T10:29:36;8.07;;;1.97;;
14116;SDS011;7137;51.436;6.544;2022-11-24T10:32:41;10.30;;;2.10;;
14116;SDS011;7137;51.436;6.544;2022-11-24T10:35:47;8.67;;;1.93;;
14116;SDS011;7137;51.436;6.544;2022-11-24T10:38:55;7.63;;;2.00;;
14116;SDS011;7137;51.436;6.544;2022-11-24T10:42:02;11.07;;;2.30;;
14116;SDS011;7137;51.436;6.544;2022-11-24T10:45:09;9.23;;;2.30;;
14116;SDS011;7137;51.436;6.544;2022-11-24T10:48:15;8.13;;;2.13;;
14116;SDS011;7137;51.436;6.544;2022-11-24T10:51:29;8.33;;;2.23;;
14116;SDS011;7137;51.436;6.544;2022-11-24T10:54:38;11.57;;;2.37;;
14116;SDS011;7137;51.436;6.544;2022-11-24T10:57:54;9.43;;;2.20;;
14116;SDS011;7137;51.436;6.544;2022-11-24T11:01:19;10.43;;;2.17;;
14116;SDS011;7137;51.436;6.544;2022-11-24T11:04:28;10.57;;;2.20;;
14116;SDS011;7137;51.436;6.544;2022-11-24T11:07:32;11.47;;;2.40;;
14116;SDS011;7137;51.436;6.544;2022-11-24T11:10:34;9.03;;;2.20;;
14116;SDS011;7137;51.436;6.544;2022-11-24T11:13:36;9.43;;;2.13;;
14116;SDS011;7137;51.436;6.544;2022-11-24T11:16:38;8.80;;;2.53;;
14116;SDS011;7137;51.436;6.544;2022-11-24T11:19:41;9.20;;;2.43;;
14116;SDS011;7137;51.436;6.544;2022-11-24T11:22:46;10.87;;;2.73;;
14116;SDS011;7137;51.436;6.544;2022-11-24T11:25:51;10.87;;;2.60;;
14116;SDS011;7137;51.436;6.544;2022-11-24T11:29:21;10.43;;;2.07;;
14116;SDS011;7137;51.436;6.544;2022-11-24T11:32:26;10.27;;;2.23;;
14116;SDS011;7137;51.436;6.544;2022-11-24T11:35:28;11.40;;;2.63;;
14116;SDS011;7137;51.436;6.544;2022-11-24T11:38:34;8.47;;;2.17;;
14116;SDS011;7137;51.436;6.544;2022-11-24T11:41:41;8.87;;;2.10;;
14116;SDS011;7137;51.436;6.544;2022-11-24T11:44:46;9.40;;;2.30;;
14116;SDS011;7137;51.436;6.544;2022-11-24T11:47:54;12.07;;;2.83;;
14116;SDS011;7137;51.436;6.544;2022-11-24T11:51:04;10.43;;;2.53;;
14116;SDS011;7137;51.436;6.544;2022-11-24T11:54:23;10.67;;;2.70;;
14116;SDS011;7137;51.436;6.544;2022-11-24T11:57:35;9.33;;;2.47;;
14116;SDS011;7137;51.436;6.544;2022-11-24T12:00:49;9.33;;;2.67;;
14116;SDS011;7137;51.436;6.544;2022-11-24T12:03:58;10.30;;;2.77;;
14116;SDS011;7137;51.436;6.544;2022-11-24T12:07:21;10.27;;;2.30;;
14116;SDS011;7137;51.436;6.544;2022-11-24T12:10:35;13.00;;;2.90;;
14116;SDS011;7137;51.436;6.544;2022-11-24T12:13:46;11.40;;;2.70;;
14116;SDS011;7137;51.436;6.544;2022-11-24T12:16:55;13.87;;;3.00;;
14116;SDS011;7137;51.436;6.544;2022-11-24T12:20:16;11.37;;;2.47;;
14116;SDS011;7137;51.436;6.544;2022-11-24T12:23:30;12.77;;;2.77;;
14116;SDS011;7137;51.436;6.544;2022-11-24T12:26:42;11.47;;;2.97;;
14116;SDS011;7137;51.436;6.544;2022-11-24T12:30:03;10.10;;;2.60;;
14116;SDS011;7137;51.436;6.544;2022-11-24T12:33:17;10.20;;;2.73;;
14116;SDS011;7137;51.436;6.544;2022-11-24T12:36:31;13.63;;;2.40;;
14116;SDS011;7137;51.436;6.544;2022-11-24T12:39:49;12.80;;;3.20;;
14116;SDS011;7137;51.436;6.544;2022-11-24T12:42:58;10.90;;;2.20;;
14116;SDS011;7137;51.436;6.544;2022-11-24T12:46:12;10.50;;;3.00;;
14116;SDS011;7137;51.436;6.544;2022-11-24T12:49:19;12.47;;;2.90;;
14116;SDS011;7137;51.436;6.544;2022-11-24T12:52:29;13.63;;;2.93;;
14116;SDS011;7137;51.436;6.544;2022-11-24T12:55:33;9.93;;;2.67;;
14116;SDS011;7137;51.436;6.544;2022-11-24T12:58:39;8.83;;;2.60;;
14116;SDS011;7137;51.436;6.544;2022-11-24T13:01:51;13.10;;;3.23;;
14116;SDS011;7137;51.436;6.544;2022-11-24T13:05:01;12.83;;;2.43;;
14116;SDS011;7137;51.436;6.544;2022-11-24T13:08:13;12.03;;;2.60;;
14116;SDS011;7137;51.436;6.544;2022-11-24T13:11:35;11.30;;;2.70;;
14116;SDS011;7137;51.436;6.544;2022-11-24T13:14:41;13.37;;;2.53;;
14116;SDS011;7137;51.436;6.544;2022-11-24T13:17:45;9.27;;;2.33;;
14116;SDS011;7137;51.436;6.544;2022-11-24T13:20:47;12.33;;;2.87;;
14116;SDS011;7137;51.436;6.544;2022-11-24T13:23:54;11.23;;;3.00;;
14116;SDS011;7137;51.436;6.544;2022-11-24T13:30:53;12.50;;;2.77;;
14116;SDS011;7137;51.436;6.544;2022-11-24T13:37:48;11.17;;;2.60;;
14116;SDS011;7137;51.436;6.544;2022-11-24T13:40:51;15.73;;;3.43;;
14116;SDS011;7137;51.436;6.544;2022-11-24T13:47:33;9.97;;;2.50;;
14116;SDS011;7137;51.436;6.544;2022-11-24T13:54:10;11.80;;;2.93;;
14116;SDS011;7137;51.436;6.544;2022-11-24T14:00:35;10.30;;;2.10;;
14116;SDS011;7137;51.436;6.544;2022-11-24T14:04:00;10.70;;;2.53;;
14116;SDS011;7137;51.436;6.544;2022-11-24T14:07:04;11.60;;;2.50;;
14116;SDS011;7137;51.436;6.544;2022-11-24T14:10:12;9.13;;;2.50;;
14116;SDS011;7137;51.436;6.544;2022-11-24T14:13:20;10.07;;;2.20;;
14116;SDS011;7137;51.436;6.544;2022-11-24T14:16:25;13.63;;;2.47;;
14116;SDS011;7137;51.436;6.544;2022-11-24T14:19:29;11.53;;;2.30;;
14116;SDS011;7137;51.436;6.544;2022-11-24T14:22:32;9.93;;;2.80;;
14116;SDS011;7137;51.436;6.544;2022-11-24T14:25:39;9.83;;;2.43;;
14116;SDS011;7137;51.436;6.544;2022-11-24T14:28:41;10.47;;;2.57;;
14116;SDS011;7137;51.436;6.544;2022-11-24T14:31:50;11.10;;;2.50;;
14116;SDS011;7137;51.436;6.544;2022-11-24T14:34:54;8.70;;;2.43;;
14116;SDS011;7137;51.436;6.544;2022-11-24T14:37:56;8.07;;;2.17;;
14116;SDS011;7137;51.436;6.544;2022-11-24T14:41:12;10.23;;;2.50;;
14116;SDS011;7137;51.436;6.544;2022-11-24T14:44:22;11.37;;;3.47;;
14116;SDS011;7137;51.436;6.544;2022-11-24T14:47:27;11.03;;;2.60;;
14116;SDS011;7137;51.436;6.544;2022-11-24T14:50:31;9.50;;;2.50;;
14116;SDS011;7137;51.436;6.544;2022-11-24T14:53:33;10.60;;;2.33;;
14116;SDS011;7137;51.436;6.544;2022-11-24T14:56:35;10.80;;;3.00;;
14116;SDS011;7137;51.436;6.544;2022-11-24T14:59:38;10.20;;;2.90;;
14116;SDS011;7137;51.436;6.544;2022-11-24T15:02:40;12.80;;;2.83;;
14116;SDS011;7137;51.436;6.544;2022-11-24T15:05:52;13.23;;;2.80;;
14116;SDS011;7137;51.436;6.544;2022-11-24T15:08:55;12.00;;;2.77;;
14116;SDS011;7137;51.436;6.544;2022-11-24T15:11:56;13.50;;;3.00;;
14116;SDS011;7137;51.436;6.544;2022-11-24T15:15:06;11.27;;;2.67;;
14116;SDS011;7137;51.436;6.544;2022-11-24T15:18:22;10.20;;;3.00;;
14116;SDS011;7137;51.436;6.544;2022-11-24T15:21:31;12.47;;;2.87;;
14116;SDS011;7137;51.436;6.544;2022-11-24T15:24:33;9.03;;;2.50;;
14116;SDS011;7137;51.436;6.544;2022-11-24T15:27:49;11.83;;;3.30;;
14116;SDS011;7137;51.436;6.544;2022-11-24T15:30:51;12.77;;;2.87;;
14116;SDS011;7137;51.436;6.544;2022-11-24T15:33:53;9.67;;;2.83;;
14116;SDS011;7137;51.436;6.544;2022-11-24T15:36:56;9.77;;;3.37;;
14116;SDS011;7137;51.436;6.544;2022-11-24T15:39:58;8.37;;;2.80;;
14116;SDS011;7137;51.436;6.544;2022-11-24T15:42:59;12.13;;;3.13;;
14116;SDS011;7137;51.436;6.544;2022-11-24T15:46:02;11.30;;;2.80;;
14116;SDS011;7137;51.436;6.544;2022-11-24T15:49:05;9.80;;;2.67;;
14116;SDS011;7137;51.436;6.544;2022-11-24T15:52:08;10.60;;;2.87;;
14116;SDS011;7137;51.436;6.544;2022-11-24T15:55:15;12.33;;;3.00;;
14116;SDS011;7137;51.436;6.544;2022-11-24T15:58:18;10.40;;;3.20;;
14116;SDS011;7137;51.436;6.544;2022-11-24T16:01:20;7.73;;;2.77;;
14116;SDS011;7137;51.436;6.544;2022-11-24T16:04:23;9.20;;;3.00;;
14116;SDS011;7137;51.436;6.544;2022-11-24T16:07:26;10.07;;;2.93;;
14116;SDS011;7137;51.436;6.544;2022-11-24T16:10:28;11.70;;;2.83;;
14116;SDS011;7137;51.436;6.544;2022-11-24T16:13:33;10.60;;;3.20;;
14116;SDS011;7137;51.436;6.544;2022-11-24T16:16:34;11.27;;;3.97;;
14116;SDS011;7137;51.436;6.544;2022-11-24T16:19:37;10.93;;;3.60;;
14116;SDS011;7137;51.436;6.544;2022-11-24T16:22:39;14.00;;;3.90;;
14116;SDS011;7137;51.436;6.544;2022-11-24T16:25:41;10.17;;;3.33;;
14116;SDS011;7137;51.436;6.544;2022-11-24T16:28:44;11.03;;;3.17;;
14116;SDS011;7137;51.436;6.544;2022-11-24T16:31:45;11.03;;;3.50;;
14116;SDS011;7137;51.436;6.544;2022-11-24T16:34:47;10.23;;;3.33;;
14116;SDS011;7137;51.436;6.544;2022-11-24T16:37:50;16.33;;;3.67;;
14116;SDS011;7137;51.436;6.544;2022-11-24T16:40:52;13.00;;;3.50;;
14116;SDS011;7137;51.436;6.544;2022-11-24T16:43:55;12.73;;;3.50;;
14116;SDS011;7137;51.436;6.544;2022-11-24T16:46:57;10.93;;;3.43;;
14116;SDS011;7137;51.436;6.544;2022-11-24T16:49:58;8.57;;;3.70;;
14116;SDS011;7137;51.436;6.544;2022-11-24T16:53:02;9.73;;;3.10;;
14116;SDS011;7137;51.436;6.544;2022-11-24T16:56:04;9.83;;;3.13;;
14116;SDS011;7137;51.436;6.544;2022-11-24T16:59:06;10.90;;;3.57;;
14116;SDS011;7137;51.436;6.544;2022-11-24T17:02:08;13.83;;;4.73;;
14116;SDS011;7137;51.436;6.544;2022-11-24T17:05:11;9.97;;;4.00;;
14116;SDS011;7137;51.436;6.544;2022-11-24T17:08:14;9.53;;;3.40;;
14116;SDS011;7137;51.436;6.544;2022-11-24T17:11:16;9.77;;;3.03;;
14116;SDS011;7137;51.436;6.544;2022-11-24T17:14:21;11.83;;;3.40;;
14116;SDS011;7137;51.436;6.544;2022-11-24T17:17:22;11.93;;;3.50;;
14116;SDS011;7137;51.436;6.544;2022-11-24T17:20:24;12.53;;;3.33;;
14116;SDS011;7137;51.436;6.544;2022-11-24T17:23:27;14.67;;;3.30;;
14116;SDS011;7137;51.436;6.544;2022-11-24T17:26:29;14.73;;;4.13;;
14116;SDS011;7137;51.436;6.544;2022-11-24T17:29:31;13.90;;;4.47;;
14116;SDS011;7137;51.436;6.544;2022-11-24T17:32:33;12.70;;;3.77;;
14116;SDS011;7137;51.436;6.544;2022-11-24T17:35:35;11.20;;;3.03;;
14116;SDS011;7137;51.436;6.544;2022-11-24T17:38:38;10.97;;;3.30;;
14116;SDS011;7137;51.436;6.544;2022-11-24T17:41:39;13.30;;;3.37;;
14116;SDS011;7137;51.436;6.544;2022-11-24T17:44:41;12.50;;;4.07;;
14116;SDS011;7137;51.436;6.544;2022-11-24T17:47:43;13.63;;;4.63;;
14116;SDS011;7137;51.436;6.544;2022-11-24T17:50:44;10.03;;;3.70;;
14116;SDS011;7137;51.436;6.544;2022-11-24T17:53:48;17.10;;;4.30;;
14116;SDS011;7137;51.436;6.544;2022-11-24T17:56:51;12.90;;;4.40;;
14116;SDS011;7137;51.436;6.544;2022-11-24T17:59:52;11.20;;;3.47;;
14116;SDS011;7137;51.436;6.544;2022-11-24T18:02:54;12.17;;;3.60;;
14116;SDS011;7137;51.436;6.544;2022-11-24T18:05:56;10.63;;;3.17;;
14116;SDS011;7137;51.436;6.544;2022-11-24T18:09:00;11.40;;;3.40;;
14116;SDS011;7137;51.436;6.544;2022-11-24T18:12:01;9.43;;;2.90;;
14116;SDS011;7137;51.436;6.544;2022-11-24T18:15:03;10.60;;;3.60;;
14116;SDS011;7137;51.436;6.544;2022-11-24T18:18:05;12.63;;;3.10;;
14116;SDS011;7137;51.436;6.544;2022-11-24T18:21:10;11.43;;;3.00;;
14116;SDS011;7137;51.436;6.544;2022-11-24T18:24:14;9.53;;;2.63;;
14116;SDS011;7137;51.436;6.544;2022-11-24T18:27:15;10.30;;;3.03;;
14116;SDS011;7137;51.436;6.544;2022-11-24T18:30:17;10.00;;;3.37;;
14116;SDS011;7137;51.436;6.544;2022-11-24T18:33:20;13.37;;;3.53;;
14116;SDS011;7137;51.436;6.544;2022-11-24T18:36:21;11.80;;;3.40;;
14116;SDS011;7137;51.436;6.544;2022-11-24T18:39:25;10.83;;;3.00;;
14116;SDS011;7137;51.436;6.544;2022-11-24T18:42:28;10.70;;;3.30;;
14116;SDS011;7137;51.436;6.544;2022-11-24T18:45:30;11.20;;;3.40;;
14116;SDS011;7137;51.436;6.544;2022-11-24T18:48:32;15.03;;;4.60;;
14116;SDS011;7137;51.436;6.544;2022-11-24T18:51:34;11.97;;;4.23;;
14116;SDS011;7137;51.436;6.544;2022-11-24T18:54:37;12.90;;;3.77;;
14116;SDS011;7137;51.436;6.544;2022-11-24T18:57:39;13.37;;;3.80;;